Main page
METAR-TAF:

METAR-TAF

Airports :

Ardabil Airport

Ardabil, Iran

latitude: 38-19-35N, longitude: 048-25-28E, elevation: 1315 m

Current weather observation

The report was made 17 minutes ago, at 14:30 UTC
Wind 16 kt from the East
Temperature 22°C
Humidity 53%
Pressure 1017 hPa
Visibility 10 km or more
Few clouds at a height of 4000 ft, Towering cumulus.

METAR: OITL 281430Z 08016KT 9999 FEW040TCU 22/12 Q1017

Time: 19:17 (14:47 UTC)


TAF: missing

Weather observations and forecasts of more than 4000 airports (METAR and TAF reports).

The available stations are represented by yellow and red dots on the map.

Hover mouse over dot to see the name of the station.

Then click to see weather observations and forecasts.

To change the map : click on the green buttons with a black cross to zoom in, on the green button with a dash to zoom out, or on the green arrows for adjacent maps.


METAR-TAF: